Time;durP1;ratioP1;P1;durP2;ratioP2;P2;SDS_P1;SDS_P2;PMS_P1;PMS_P2;Temp;Humidity;BMP_temperature;BMP_pressure;BME280_temperature;BME280_humidity;BME280_pressure;Samples;Min_cycle;Max_cycle;Signal;HPM_P1;HPM_P2
2023/01/31 00:02:10;;;;;;;38.58;29.50;;;5.10;99.90;;;;;;5115343;28;20114;-64
2023/01/31 00:04:36;;;;;;;40.97;33.40;;;4.90;99.90;;;;;;5115624;28;20023;-64
2023/01/31 00:07:02;;;;;;;21.48;18.15;;;4.90;99.90;;;;;;5115671;28;20452;-64
2023/01/31 00:09:28;;;;;;;13.27;11.25;;;4.80;99.90;;;;;;5115495;28;20031;-64
2023/01/31 00:11:53;;;;;;;18.08;15.45;;;4.80;99.90;;;;;;5115606;28;20510;-65
2023/01/31 00:14:20;;;;;;;11.50;10.30;;;4.70;99.90;;;;;;5115457;28;20050;-64
2023/01/31 00:16:47;;;;;;;11.52;8.95;;;4.70;99.90;;;;;;5115410;28;20028;-64
2023/01/31 00:19:12;;;;;;;9.52;8.48;;;4.70;99.90;;;;;;5115402;28;20484;-64
2023/01/31 00:21:42;;;;;;;13.27;8.40;;;4.70;99.90;;;;;;5115233;28;20028;-64
2023/01/31 00:24:08;;;;;;;8.48;7.60;;;4.60;99.90;;;;;;5115268;28;20396;-64
2023/01/31 00:26:34;;;;;;;8.85;7.18;;;4.60;99.90;;;;;;5115344;28;20020;-64
2023/01/31 00:29:02;;;;;;;9.18;7.55;;;4.50;99.90;;;;;;5115605;28;20468;-64
2023/01/31 00:31:29;;;;;;;9.02;7.20;;;4.50;99.90;;;;;;5114668;28;20463;-64
2023/01/31 00:33:55;;;;;;;10.70;7.85;;;4.40;99.90;;;;;;5115637;28;20027;-64
2023/01/31 00:36:29;;;;;;;8.43;7.55;;;4.30;99.90;;;;;;5115018;28;20080;-64
2023/01/31 00:38:58;;;;;;;7.90;6.95;;;4.30;99.90;;;;;;5114855;28;20027;-65
2023/01/31 00:41:27;;;;;;;10.68;8.75;;;4.40;99.90;;;;;;5115054;28;20027;-64
2023/01/31 00:43:53;;;;;;;12.30;10.02;;;4.40;99.90;;;;;;5114716;28;20031;-65
2023/01/31 00:46:22;;;;;;;16.92;14.73;;;4.30;99.90;;;;;;5114428;28;20031;-65
2023/01/31 00:48:48;;;;;;;19.77;16.17;;;4.20;99.90;;;;;;5114927;28;20027;-64
2023/01/31 00:51:15;;;;;;;17.50;14.70;;;4.10;99.90;;;;;;5115232;28;20027;-64
2023/01/31 00:53:40;;;;;;;18.02;15.25;;;3.90;99.90;;;;;;5114803;28;20058;-64
2023/01/31 00:56:12;;;;;;;11.98;10.60;;;3.80;99.90;;;;;;5114659;28;20062;-64
2023/01/31 00:58:38;;;;;;;13.63;10.85;;;3.90;99.90;;;;;;5114384;28;20039;-65
2023/01/31 01:01:16;;;;;;;12.82;11.55;;;3.90;99.90;;;;;;5114880;28;20027;-65
2023/01/31 01:03:43;;;;;;;10.77;8.70;;;3.90;99.90;;;;;;5115036;28;20015;-65
2023/01/31 01:06:09;;;;;;;10.25;9.23;;;4.00;99.90;;;;;;5114204;28;20035;-64
2023/01/31 01:08:36;;;;;;;12.13;9.60;;;4.10;99.90;;;;;;5114466;28;20511;-64
2023/01/31 01:11:10;;;;;;;10.38;9.20;;;4.10;99.90;;;;;;5114460;28;20052;-64
2023/01/31 01:13:37;;;;;;;11.25;9.88;;;4.10;99.90;;;;;;5114238;28;20110;-65
2023/01/31 01:16:08;;;;;;;10.07;8.70;;;4.10;99.90;;;;;;5114259;28;20034;-64
2023/01/31 01:18:34;;;;;;;9.85;8.68;;;4.10;99.90;;;;;;5114824;28;20020;-64
2023/01/31 01:21:12;;;;;;;9.48;8.30;;;4.10;99.90;;;;;;5114294;28;20023;-64
2023/01/31 01:23:39;;;;;;;8.57;7.72;;;4.10;99.90;;;;;;5114258;28;20032;-64
2023/01/31 01:26:11;;;;;;;8.93;8.05;;;4.10;99.90;;;;;;5114110;28;20024;-65
2023/01/31 01:28:37;;;;;;;11.38;8.68;;;4.00;99.90;;;;;;5114248;28;20107;-65
2023/01/31 01:31:07;;;;;;;10.70;9.77;;;4.00;99.90;;;;;;5114231;28;20548;-64
2023/01/31 01:33:33;;;;;;;12.52;11.18;;;4.00;99.90;;;;;;5114082;28;20034;-65
2023/01/31 01:36:01;;;;;;;10.82;9.75;;;4.00;99.90;;;;;;5114062;28;20028;-65
2023/01/31 01:38:26;;;;;;;11.15;10.02;;;4.00;99.90;;;;;;5114023;28;20027;-65
2023/01/31 01:40:52;;;;;;;11.32;9.70;;;4.20;99.90;;;;;;5113788;28;20024;-65
2023/01/31 01:43:18;;;;;;;10.90;9.70;;;4.20;99.90;;;;;;5113686;28;20019;-64
2023/01/31 01:45:44;;;;;;;11.10;9.07;;;4.20;99.90;;;;;;5114232;28;20028;-65
2023/01/31 01:48:15;;;;;;;11.93;9.40;;;4.30;99.90;;;;;;5113306;28;20031;-65
2023/01/31 01:50:47;;;;;;;9.88;8.30;;;4.50;99.90;;;;;;5113719;28;20015;-64
2023/01/31 01:53:23;;;;;;;12.02;9.55;;;4.60;99.90;;;;;;5113598;28;20074;-64
2023/01/31 01:56:05;;;;;;;9.73;8.73;;;4.70;99.90;;;;;;5113520;28;20104;-65
2023/01/31 01:58:35;;;;;;;11.27;8.93;;;4.70;99.90;;;;;;5113817;28;20027;-65
2023/01/31 02:01:04;;;;;;;11.35;8.48;;;4.80;99.90;;;;;;5113676;28;20399;-65
2023/01/31 02:03:30;;;;;;;9.82;8.63;;;4.80;99.90;;;;;;5113477;28;20027;-65
2023/01/31 02:05:59;;;;;;;10.20;8.73;;;4.90;99.90;;;;;;5113451;28;20044;-65
2023/01/31 02:08:30;;;;;;;9.70;8.63;;;5.00;99.90;;;;;;5113318;28;20020;-65
2023/01/31 02:11:30;;;;;;;9.02;8.10;;;4.90;99.90;;;;;;5113061;28;20085;-65
2023/01/31 02:14:07;;;;;;;10.18;8.40;;;5.00;99.90;;;;;;5010235;28;20042;-64
2023/01/31 02:16:34;;;;;;;10.02;8.23;;;5.00;99.90;;;;;;5011062;28;20045;-65
2023/01/31 02:19:00;;;;;;;8.90;8.00;;;5.00;99.90;;;;;;5010646;28;20037;-65
2023/01/31 02:22:09;;;;;;;9.93;8.85;;;5.00;99.90;;;;;;5010710;28;20101;-65
2023/01/31 02:24:38;;;;;;;9.48;8.55;;;5.00;99.90;;;;;;4952551;29;20055;-64
2023/01/31 02:27:30;;;;;;;9.80;8.60;;;5.10;99.90;;;;;;4952264;29;20114;-64
2023/01/31 02:30:08;;;;;;;9.23;8.38;;;5.10;99.90;;;;;;4952243;29;20059;-64
2023/01/31 02:32:51;;;;;;;10.93;8.43;;;5.10;99.90;;;;;;4952270;29;20447;-65
2023/01/31 02:35:32;;;;;;;10.65;8.57;;;5.20;99.90;;;;;;4952157;29;20038;-65
2023/01/31 02:38:10;;;;;;;10.32;8.25;;;5.20;99.90;;;;;;4952462;29;20039;-64
2023/01/31 02:40:44;;;;;;;10.10;8.13;;;5.20;99.90;;;;;;4951874;29;20028;-65
2023/01/31 02:43:31;;;;;;;9.60;8.40;;;5.20;99.90;;;;;;4952139;29;20484;-65
2023/01/31 02:46:13;;;;;;;10.23;9.23;;;5.20;99.90;;;;;;4951809;29;20054;-65
2023/01/31 02:49:06;;;;;;;9.82;8.55;;;5.10;99.90;;;;;;4966307;28;20040;-64
2023/01/31 02:51:40;;;;;;;10.07;8.30;;;5.10;99.90;;;;;;5049584;28;20045;-65
2023/01/31 02:54:14;;;;;;;11.38;8.85;;;5.20;99.90;;;;;;5049962;28;20052;-65
2023/01/31 02:56:43;;;;;;;9.63;8.38;;;5.10;99.90;;;;;;5050275;28;20025;-65
2023/01/31 02:59:25;;;;;;;10.25;8.88;;;5.10;99.90;;;;;;5083324;28;20073;-65
2023/01/31 03:01:58;;;;;;;9.95;8.95;;;5.10;99.90;;;;;;5092053;28;20039;-65
2023/01/31 03:04:24;;;;;;;10.00;8.82;;;5.00;99.90;;;;;;5092265;28;20021;-65
2023/01/31 03:07:00;;;;;;;14.30;9.57;;;5.00;99.90;;;;;;5095135;28;20051;-65
2023/01/31 03:09:35;;;;;;;11.20;9.05;;;5.00;99.90;;;;;;5111910;28;20034;-64
2023/01/31 03:12:11;;;;;;;11.07;9.02;;;5.00;99.90;;;;;;5112502;28;20028;-65
2023/01/31 03:15:00;;;;;;;9.90;8.88;;;5.10;99.90;;;;;;5112484;28;20055;-65
2023/01/31 03:17:32;;;;;;;11.48;9.07;;;5.00;99.90;;;;;;5029759;28;20060;-65
2023/01/31 03:20:16;;;;;;;9.63;8.63;;;5.10;99.90;;;;;;5029953;28;20045;-65
2023/01/31 03:22:49;;;;;;;10.27;9.18;;;5.00;99.90;;;;;;5029488;28;20045;-65
2023/01/31 03:25:20;;;;;;;12.03;8.77;;;4.90;99.90;;;;;;5033539;28;20040;-65
2023/01/31 03:27:54;;;;;;;9.57;8.50;;;5.00;99.90;;;;;;5033850;28;20112;-65
2023/01/31 03:30:29;;;;;;;9.95;8.95;;;4.90;99.90;;;;;;5033466;28;20384;-65
2023/01/31 03:33:01;;;;;;;11.68;8.93;;;4.90;99.90;;;;;;5033617;28;20025;-65
2023/01/31 03:35:30;;;;;;;10.43;8.63;;;4.80;99.90;;;;;;5033859;28;20034;-64
2023/01/31 03:38:00;;;;;;;9.68;8.77;;;4.70;99.90;;;;;;5033675;28;20533;-65
2023/01/31 03:40:35;;;;;;;11.98;9.02;;;4.70;99.90;;;;;;5033542;28;20521;-64
2023/01/31 03:43:31;;;;;;;9.25;8.38;;;4.60;99.90;;;;;;5033405;28;20053;-65
2023/01/31 03:46:01;;;;;;;9.82;8.82;;;4.40;99.90;;;;;;5033367;28;20037;-65
2023/01/31 03:48:31;;;;;;;12.98;11.68;;;4.40;99.90;;;;;;5052897;28;20033;-65
2023/01/31 03:51:00;;;;;;;16.13;13.45;;;4.40;99.90;;;;;;5053110;28;20421;-65
2023/01/31 03:53:39;;;;;;;12.23;10.98;;;4.20;99.90;;;;;;5055374;28;20032;-64
2023/01/31 03:56:23;;;;;;;14.98;13.35;;;4.10;99.90;;;;;;5095611;28;20024;-65
2023/01/31 03:58:55;;;;;;;15.93;14.32;;;4.00;99.90;;;;;;5095613;28;20073;-65
2023/01/31 04:01:24;;;;;;;15.25;13.35;;;3.90;99.90;;;;;;5095982;28;20028;-65
2023/01/31 04:03:58;;;;;;;15.65;12.95;;;3.70;99.90;;;;;;5095203;28;20024;-65
2023/01/31 04:06:24;;;;;;;15.45;13.80;;;3.70;99.90;;;;;;5095656;28;20071;-65
2023/01/31 04:08:50;;;;;;;17.13;14.75;;;3.60;99.90;;;;;;5114395;28;20073;-65
2023/01/31 04:11:20;;;;;;;19.60;16.75;;;3.40;99.90;;;;;;5115086;28;20055;-65
2023/01/31 04:13:46;;;;;;;23.05;20.23;;;3.40;99.90;;;;;;5116096;28;20027;-65
2023/01/31 04:16:11;;;;;;;21.70;17.23;;;3.40;99.90;;;;;;5115617;28;20024;-65
2023/01/31 04:18:37;;;;;;;24.40;21.90;;;3.30;99.90;;;;;;5115597;28;20098;-65
2023/01/31 04:21:03;;;;;;;27.38;24.58;;;3.20;99.90;;;;;;5115450;28;20103;-65
2023/01/31 04:23:29;;;;;;;25.95;21.83;;;3.30;99.90;;;;;;5096854;28;20039;-64
2023/01/31 04:25:55;;;;;;;20.80;18.58;;;3.20;99.90;;;;;;5115445;28;20028;-65
2023/01/31 04:28:21;;;;;;;17.00;13.77;;;3.20;99.90;;;;;;5115673;28;20361;-65
2023/01/31 04:30:53;;;;;;;14.63;13.15;;;3.20;99.90;;;;;;5115491;28;20388;-65
2023/01/31 04:33:18;;;;;;;19.02;13.95;;;3.10;99.90;;;;;;5115212;28;20027;-64
2023/01/31 04:35:44;;;;;;;21.25;18.70;;;3.10;99.90;;;;;;5114746;28;20376;-65
2023/01/31 04:38:10;;;;;;;22.00;18.80;;;3.10;99.90;;;;;;5115123;28;20103;-65
2023/01/31 04:40:35;;;;;;;16.90;15.20;;;3.10;99.90;;;;;;5115242;28;20016;-64
2023/01/31 04:43:01;;;;;;;26.85;21.70;;;3.10;99.90;;;;;;5115090;28;20024;-65
2023/01/31 04:45:27;;;;;;;29.85;25.40;;;3.00;99.90;;;;;;5114956;28;20104;-65
2023/01/31 04:47:52;;;;;;;24.63;20.45;;;3.00;99.90;;;;;;5096787;28;20027;-65
2023/01/31 04:50:18;;;;;;;25.67;21.70;;;3.00;99.90;;;;;;5114729;28;20537;-64
2023/01/31 04:52:46;;;;;;;16.63;14.98;;;2.90;99.90;;;;;;5114526;28;20038;-63
2023/01/31 04:55:12;;;;;;;18.13;14.57;;;3.00;99.90;;;;;;5114574;28;20031;-64
2023/01/31 04:57:38;;;;;;;18.35;13.98;;;3.00;99.90;;;;;;5114426;28;20031;-65
2023/01/31 05:00:04;;;;;;;14.15;12.85;;;3.10;99.90;;;;;;5115134;28;20058;-65
2023/01/31 05:02:30;;;;;;;13.85;12.32;;;3.10;99.90;;;;;;5114776;28;20024;-63
2023/01/31 05:04:56;;;;;;;13.52;12.13;;;3.20;99.90;;;;;;5113858;28;20027;-65
2023/01/31 05:07:22;;;;;;;13.85;12.35;;;3.40;99.90;;;;;;5114101;28;20093;-65
2023/01/31 05:09:48;;;;;;;13.00;11.68;;;3.40;99.90;;;;;;5114238;28;20061;-64
2023/01/31 05:12:13;;;;;;;13.30;10.82;;;3.50;99.90;;;;;;5114410;28;20498;-64
2023/01/31 05:14:39;;;;;;;12.43;11.00;;;3.50;99.90;;;;;;5114299;28;20023;-64
2023/01/31 05:17:05;;;;;;;11.88;10.25;;;3.50;99.90;;;;;;5114202;28;20034;-64
2023/01/31 05:19:31;;;;;;;10.90;9.82;;;3.60;99.90;;;;;;5114445;28;20026;-65
2023/01/31 05:21:57;;;;;;;11.90;9.73;;;3.70;99.90;;;;;;5096067;28;20463;-65
2023/01/31 05:24:31;;;;;;;14.20;10.43;;;3.70;99.90;;;;;;5114264;28;20052;-64
2023/01/31 05:26:57;;;;;;;;;;;3.70;99.90;;;;;;5114604;28;20098;-65
2023/01/31 05:29:32;;;;;;;11.55;10.35;;;3.70;99.90;;;;;;5114215;28;19910;-64
2023/01/31 05:32:00;;;;;;;11.85;10.65;;;3.70;99.90;;;;;;5114163;28;20026;-64
2023/01/31 05:34:29;;;;;;;13.02;10.25;;;3.80;99.90;;;;;;5113589;28;20143;-64
2023/01/31 05:36:55;;;;;;;12.05;10.75;;;3.80;99.90;;;;;;5114287;28;20115;-65
2023/01/31 05:39:21;;;;;;;12.07;10.85;;;3.80;99.90;;;;;;5096095;28;20022;-65
2023/01/31 05:41:47;;;;;;;12.95;11.63;;;3.80;99.90;;;;;;5114000;28;20058;-65
2023/01/31 05:44:13;;;;;;;14.65;13.05;;;3.80;99.90;;;;;;5113928;28;20082;-64
2023/01/31 05:46:39;;;;;;;13.40;12.00;;;3.90;99.90;;;;;;5112993;28;20035;-64
2023/01/31 05:49:05;;;;;;;13.30;11.93;;;4.00;99.90;;;;;;5113631;28;20035;-64
2023/01/31 05:51:30;;;;;;;18.05;14.63;;;4.00;99.90;;;;;;5095471;28;20020;-65
2023/01/31 05:53:56;;;;;;;14.65;13.18;;;4.10;99.90;;;;;;5113542;28;20028;-64
2023/01/31 05:56:22;;;;;;;14.85;13.00;;;4.10;99.90;;;;;;5113975;28;20472;-64
2023/01/31 05:58:49;;;;;;;13.20;11.85;;;4.10;99.90;;;;;;5113614;28;20039;-65
2023/01/31 06:01:24;;;;;;;13.80;12.18;;;4.10;99.90;;;;;;5113493;28;20019;-64
2023/01/31 06:03:49;;;;;;;12.85;11.55;;;4.10;99.90;;;;;;5113108;28;20039;-65
2023/01/31 06:06:16;;;;;;;13.30;12.00;;;4.10;99.90;;;;;;5113175;28;20031;-64
2023/01/31 06:08:42;;;;;;;14.07;12.30;;;4.20;99.90;;;;;;5113448;28;20030;-64
2023/01/31 06:11:12;;;;;;;15.63;13.00;;;4.20;99.90;;;;;;5095299;28;20044;-64
2023/01/31 06:13:38;;;;;;;14.10;12.80;;;4.20;99.90;;;;;;5113451;28;20031;-64
2023/01/31 06:16:05;;;;;;;16.95;13.82;;;4.20;99.90;;;;;;5113434;28;20399;-64
2023/01/31 06:18:31;;;;;;;20.42;16.20;;;4.20;99.90;;;;;;5113045;28;20128;-64
2023/01/31 06:20:57;;;;;;;15.27;13.68;;;4.20;99.90;;;;;;5113763;28;20023;-64
2023/01/31 06:23:22;;;;;;;22.63;16.30;;;4.30;99.90;;;;;;5113182;28;20034;-64
2023/01/31 06:25:52;;;;;;;16.33;14.02;;;4.30;99.90;;;;;;5113124;28;20039;-64
2023/01/31 06:28:19;;;;;;;15.77;14.18;;;4.30;99.90;;;;;;5113415;28;20028;-64
2023/01/31 06:30:45;;;;;;;19.08;12.90;;;4.30;99.90;;;;;;5113056;28;20487;-64
2023/01/31 06:33:11;;;;;;;14.60;13.07;;;4.30;99.90;;;;;;5112817;28;20015;-64
2023/01/31 06:35:38;;;;;;;16.63;13.88;;;4.30;99.90;;;;;;5113103;28;20511;-64
2023/01/31 06:38:04;;;;;;;16.80;13.82;;;4.30;99.90;;;;;;5112641;28;20016;-63
2023/01/31 06:40:30;;;;;;;15.93;13.75;;;4.30;99.90;;;;;;5113060;28;20024;-64
2023/01/31 06:42:57;;;;;;;16.50;12.68;;;4.30;99.90;;;;;;5112754;28;20488;-63
2023/01/31 06:45:22;;;;;;;21.20;13.68;;;4.30;99.90;;;;;;5112954;28;20040;-64
2023/01/31 06:47:48;;;;;;;14.90;12.85;;;4.30;99.90;;;;;;5094124;28;20091;-63
2023/01/31 06:50:14;;;;;;;13.60;12.20;;;4.30;99.90;;;;;;5112653;28;20434;-64
2023/01/31 06:52:40;;;;;;;19.05;12.73;;;4.40;99.90;;;;;;5112598;28;20074;-64
2023/01/31 06:55:06;;;;;;;13.95;12.55;;;4.30;99.90;;;;;;5112948;28;20499;-64
2023/01/31 06:57:32;;;;;;;14.43;12.80;;;4.30;99.90;;;;;;5112742;28;20031;-64
2023/01/31 06:59:57;;;;;;;14.40;12.25;;;4.30;99.90;;;;;;5112292;28;20031;-62
2023/01/31 07:02:24;;;;;;;14.02;11.88;;;4.40;99.90;;;;;;5112292;28;20019;-64
2023/01/31 07:04:50;;;;;;;14.23;11.45;;;4.30;99.90;;;;;;5112384;28;20395;-62
2023/01/31 07:07:16;;;;;;;13.27;11.93;;;4.30;99.90;;;;;;5111297;28;20019;-65
2023/01/31 07:09:42;;;;;;;13.82;12.13;;;4.30;99.90;;;;;;5111531;28;20066;-63
2023/01/31 07:12:08;;;;;;;13.93;12.50;;;4.30;99.90;;;;;;5112275;28;20027;-65
2023/01/31 07:14:33;;;;;;;14.23;12.73;;;4.30;99.90;;;;;;5112577;28;20023;-64
2023/01/31 07:16:59;;;;;;;13.80;12.25;;;4.30;99.90;;;;;;5094048;28;20038;-64
2023/01/31 07:19:25;;;;;;;14.77;12.43;;;4.30;99.90;;;;;;5112846;28;20028;-64
2023/01/31 07:21:51;;;;;;;14.18;12.68;;;4.30;99.90;;;;;;5112472;28;20019;-64
2023/01/31 07:24:16;;;;;;;14.20;12.75;;;4.30;99.90;;;;;;5112507;28;20051;-64
2023/01/31 07:26:42;;;;;;;13.43;12.13;;;4.30;99.90;;;;;;5112301;28;20051;-64
2023/01/31 07:29:08;;;;;;;18.05;16.23;;;4.30;99.90;;;;;;5112462;28;20106;-64
2023/01/31 07:31:34;;;;;;;14.23;12.73;;;4.30;99.90;;;;;;5112297;28;20488;-64
2023/01/31 07:34:00;;;;;;;14.15;12.20;;;4.30;99.90;;;;;;5112276;28;20026;-64
2023/01/31 07:36:26;;;;;;;13.88;12.13;;;4.30;99.90;;;;;;5112306;28;20032;-64
2023/01/31 07:38:56;;;;;;;14.30;12.85;;;4.20;99.90;;;;;;5112200;28;20098;-64
2023/01/31 07:41:23;;;;;;;14.45;12.95;;;4.30;99.90;;;;;;5112164;28;20111;-64
2023/01/31 07:43:49;;;;;;;16.98;14.70;;;4.40;99.90;;;;;;5112635;28;20110;-64
2023/01/31 07:46:15;;;;;;;16.15;13.32;;;4.60;99.90;;;;;;5110974;28;20070;-64
2023/01/31 07:48:40;;;;;;;13.75;12.45;;;4.60;99.90;;;;;;5112214;28;20027;-66
2023/01/31 07:51:07;;;;;;;15.48;13.25;;;4.50;99.90;;;;;;5112414;28;20036;-64
2023/01/31 07:53:35;;;;;;;16.67;14.98;;;4.50;99.90;;;;;;5112044;28;20024;-64
2023/01/31 07:56:09;;;;;;;14.40;12.73;;;4.60;99.90;;;;;;5112087;28;20027;-64
2023/01/31 07:58:35;;;;;;;20.02;15.88;;;4.60;99.90;;;;;;5112577;28;20020;-63
2023/01/31 08:03:45;;;;;;;19.63;15.88;;;4.70;99.90;;;;;;5112385;28;20031;-63
2023/01/31 08:06:12;;;;;;;18.42;15.70;;;4.80;99.90;;;;;;5111652;28;20043;-64
2023/01/31 08:08:39;;;;;;;19.02;16.13;;;4.80;99.90;;;;;;5093269;28;20032;-63
2023/01/31 08:11:05;;;;;;;13.63;12.27;;;5.00;99.90;;;;;;5112283;28;20131;-65
2023/01/31 08:13:32;;;;;;;13.00;11.60;;;5.10;99.90;;;;;;5114414;28;20544;-64
2023/01/31 08:15:58;;;;;;;13.43;11.10;;;4.90;99.90;;;;;;5115492;28;20043;-65
2023/01/31 08:18:24;;;;;;;13.25;11.60;;;5.00;99.90;;;;;;5115677;28;20031;-66
2023/01/31 08:20:50;;;;;;;12.65;11.35;;;5.00;99.90;;;;;;5115477;28;20035;-64
2023/01/31 08:23:16;;;;;;;12.90;11.25;;;5.10;99.90;;;;;;5115616;28;20024;-65
2023/01/31 08:25:42;;;;;;;12.85;11.00;;;5.30;99.90;;;;;;5115842;28;20167;-65
2023/01/31 08:28:08;;;;;;;12.45;10.20;;;5.50;99.90;;;;;;5114863;28;20035;-64
2023/01/31 08:30:34;;;;;;;15.95;10.90;;;5.80;99.90;;;;;;5115775;28;20032;-65
2023/01/31 08:32:59;;;;;;;14.00;10.55;;;6.20;99.90;;;;;;5115316;28;20020;-65
2023/01/31 08:35:26;;;;;;;13.98;11.23;;;6.30;99.90;;;;;;5115086;28;20024;-64
2023/01/31 08:37:52;;;;;;;13.52;12.10;;;6.10;99.90;;;;;;5115325;28;20022;-65
2023/01/31 08:40:18;;;;;;;13.20;11.23;;;6.30;99.90;;;;;;5115161;28;20116;-65
2023/01/31 08:42:51;;;;;;;11.30;10.18;;;6.40;99.90;;;;;;5114597;28;20023;-67
2023/01/31 08:45:17;;;;;;;14.90;11.48;;;6.60;99.90;;;;;;5115287;28;20036;-65
2023/01/31 08:47:43;;;;;;;10.77;9.55;;;7.00;99.90;;;;;;5114916;28;20024;-66
2023/01/31 08:50:09;;;;;;;13.27;10.18;;;7.00;99.90;;;;;;5096713;28;20027;-64
2023/01/31 08:52:35;;;;;;;19.23;17.40;;;7.00;99.90;;;;;;5114670;28;20457;-66
2023/01/31 08:55:01;;;;;;;10.52;9.45;;;6.90;99.90;;;;;;5114983;28;20034;-64
2023/01/31 08:57:27;;;;;;;9.98;8.80;;;6.70;99.90;;;;;;5114613;28;20020;-63
2023/01/31 08:59:53;;;;;;;10.57;8.82;;;6.70;99.90;;;;;;5114800;28;20387;-65
2023/01/31 09:02:18;;;;;;;10.52;8.85;;;6.80;99.90;;;;;;5114780;28;20023;-63
2023/01/31 09:04:44;;;;;;;12.52;9.20;;;6.70;99.90;;;;;;5114462;28;20020;-64
2023/01/31 09:07:10;;;;;;;11.40;9.40;;;6.50;99.90;;;;;;5114649;28;20495;-65
2023/01/31 09:09:36;;;;;;;49.10;38.17;;;6.60;99.90;;;;;;5114678;28;20059;-65
2023/01/31 09:12:03;;;;;;;10.65;9.60;;;6.80;99.90;;;;;;5114263;28;20092;-65
2023/01/31 09:14:30;;;;;;;11.45;8.32;;;6.80;99.90;;;;;;5114409;28;20023;-65
2023/01/31 09:16:56;;;;;;;9.05;8.15;;;6.90;99.90;;;;;;5112318;28;20055;-63
2023/01/31 09:19:22;;;;;;;10.20;8.88;;;6.80;99.90;;;;;;5113430;28;20062;-64
2023/01/31 09:21:48;;;;;;;9.57;8.57;;;6.80;99.90;;;;;;5113633;28;20040;-64
2023/01/31 09:24:14;;;;;;;10.07;8.93;;;7.00;99.90;;;;;;5113715;28;20047;-64
2023/01/31 09:26:39;;;;;;;25.35;19.92;;;7.10;99.90;;;;;;5113261;28;20070;-64
2023/01/31 09:29:05;;;;;;;68.45;59.55;;;7.70;99.90;;;;;;5114363;28;20047;-65
2023/01/31 09:31:31;;;;;;;175.43;129.98;;;8.10;99.90;;;;;;5111879;28;20039;-64
2023/01/31 09:33:57;;;;;;;141.57;107.57;;;9.20;99.90;;;;;;5114014;28;20045;-65
2023/01/31 09:36:26;;;;;;;39.05;30.50;;;10.90;99.90;;;;;;5113860;28;20024;-64
2023/01/31 09:38:56;;;;;;;11.75;10.43;;;10.20;99.90;;;;;;5113760;28;20109;-65
2023/01/31 09:41:35;;;;;;;9.77;7.95;;;8.90;99.90;;;;;;5113250;28;20024;-64
2023/01/31 09:44:01;;;;;;;10.77;8.43;;;8.80;99.90;;;;;;5114191;28;20479;-64
2023/01/31 09:46:33;;;;;;;11.45;10.25;;;9.30;99.90;;;;;;5113058;28;20115;-64
2023/01/31 09:49:04;;;;;;;7.95;7.10;;;10.00;99.90;;;;;;5113749;28;20052;-64
2023/01/31 09:51:32;;;;;;;11.25;6.38;;;11.60;99.90;;;;;;5113640;28;20447;-64
2023/01/31 09:54:00;;;;;;;8.85;6.20;;;10.30;99.90;;;;;;5113977;28;20107;-65
2023/01/31 09:56:42;;;;;;;8.13;5.50;;;13.80;99.90;;;;;;5112806;28;20507;-64
2023/01/31 09:59:47;;;;;;;7.63;5.90;;;13.00;99.90;;;;;;5113417;28;20527;-63
2023/01/31 10:02:27;;;;;;;7.13;5.90;;;10.70;99.90;;;;;;5112841;28;20023;-63
2023/01/31 10:05:13;;;;;;;7.18;5.80;;;10.40;99.90;;;;;;5112745;28;20092;-63
2023/01/31 10:07:50;;;;;;;7.95;5.13;;;12.70;99.90;;;;;;5113572;28;20056;-63
2023/01/31 10:10:28;;;;;;;5.68;5.18;;;13.50;99.90;;;;;;5112254;28;20400;-63
2023/01/31 10:12:58;;;;;;;8.20;5.95;;;12.70;99.90;;;;;;5113607;28;20380;-63
2023/01/31 10:15:37;;;;;;;5.35;4.78;;;13.50;99.90;;;;;;5112503;28;20081;-63
2023/01/31 10:18:37;;;;;;;8.90;6.13;;;16.20;99.90;;;;;;5112892;28;20518;-63
2023/01/31 10:21:11;;;;;;;4.65;4.25;;;17.20;99.90;;;;;;5094006;28;20046;-63
2023/01/31 10:23:42;;;;;;;6.35;4.47;;;18.70;99.90;;;;;;5113174;28;20016;-62
2023/01/31 10:26:23;;;;;;;6.53;4.60;;;17.80;99.90;;;;;;5112992;28;20063;-62
2023/01/31 10:29:17;;;;;;;6.78;5.93;;;18.90;99.90;;;;;;5113002;28;20020;-62
2023/01/31 10:31:53;;;;;;;4.00;3.70;;;20.60;99.90;;;;;;5112525;28;20419;-62
2023/01/31 10:34:37;;;;;;;6.68;3.63;;;19.40;99.90;;;;;;5112849;28;20024;-62
2023/01/31 10:37:06;;;;;;;3.75;3.20;;;20.60;99.90;;;;;;5112838;28;20039;-62
2023/01/31 10:39:38;;;;;;;3.58;3.00;;;19.90;99.90;;;;;;5112924;28;20054;-62
2023/01/31 10:42:31;;;;;;;4.00;3.60;;;19.00;99.90;;;;;;5112827;28;20020;-62
2023/01/31 10:45:20;;;;;;;4.15;3.10;;;19.80;99.90;;;;;;5112450;28;20110;-62
2023/01/31 10:48:17;;;;;;;4.10;3.53;;;20.60;99.90;;;;;;5112694;28;20024;-62
2023/01/31 10:51:23;;;;;;;2.90;2.60;;;21.30;99.90;;;;;;5112196;28;20389;-62
2023/01/31 10:54:16;;;;;;;3.08;2.65;;;21.90;99.90;;;;;;5112412;28;20038;-62
2023/01/31 10:56:47;;;;;;;3.10;2.80;;;20.00;99.90;;;;;;5112455;28;20020;-62
2023/01/31 10:59:24;;;;;;;3.63;3.15;;;19.50;99.90;;;;;;5112600;28;20499;-62
2023/01/31 11:01:51;;;;;;;3.03;2.75;;;18.10;99.90;;;;;;5112691;28;20099;-63
2023/01/31 11:04:33;;;;;;;3.25;2.63;;;20.00;99.90;;;;;;5112922;28;20081;-63
2023/01/31 11:07:01;;;;;;;2.75;2.55;;;21.00;99.90;;;;;;5112240;28;20043;-63
2023/01/31 11:09:31;;;;;;;109.50;93.88;;;21.00;99.90;;;;;;5111763;28;20073;-62
2023/01/31 11:12:03;;;;;;;5.95;4.80;;;18.50;99.90;;;;;;5112720;28;20109;-62
2023/01/31 11:14:30;;;;;;;7.63;6.93;;;20.90;99.90;;;;;;5112434;28;20425;-63
2023/01/31 11:17:04;;;;;;;3.72;2.50;;;18.90;99.90;;;;;;5112391;28;20077;-63
2023/01/31 11:19:37;;;;;;;3.65;2.42;;;16.80;99.90;;;;;;5112293;28;20048;-63
2023/01/31 11:22:04;;;;;;;3.47;2.88;;;17.20;99.90;;;;;;5112126;28;20027;-63
2023/01/31 11:24:33;;;;;;;4.65;2.30;;;15.50;99.90;;;;;;5112650;28;20425;-63
2023/01/31 11:27:05;;;;;;;2.30;2.10;;;15.60;99.90;;;;;;5112348;28;20063;-62
2023/01/31 11:29:47;;;;;;;3.47;2.40;;;16.00;99.90;;;;;;5112223;28;20026;-63
2023/01/31 11:32:43;;;;;;;16.02;14.43;;;16.70;99.90;;;;;;5112346;28;20073;-61
2023/01/31 11:35:30;;;;;;;2.67;1.88;;;17.30;99.90;;;;;;5095452;28;20449;-63
2023/01/31 11:38:00;;;;;;;27.40;24.50;;;15.70;99.90;;;;;;5111452;28;20397;-63
2023/01/31 11:40:38;;;;;;;10.02;9.07;;;18.40;99.90;;;;;;5110851;28;20119;-63
2023/01/31 11:43:20;;;;;;;2.95;2.65;;;21.00;99.90;;;;;;5111147;28;20027;-63
2023/01/31 11:45:55;;;;;;;1.73;1.63;;;20.80;99.90;;;;;;5112804;28;20032;-63
2023/01/31 11:48:31;;;;;;;3.33;3.03;;;18.00;99.90;;;;;;5097216;28;20387;-63
2023/01/31 11:51:01;;;;;;;12.38;11.07;;;18.10;99.90;;;;;;5115532;28;20408;-63
2023/01/31 11:53:37;;;;;;;12.13;11.00;;;17.80;99.90;;;;;;5115938;28;20027;-63
2023/01/31 11:56:21;;;;;;;2.35;2.10;;;17.50;99.90;;;;;;5115363;28;20030;-63
2023/01/31 11:58:52;;;;;;;63.67;57.20;;;16.50;99.90;;;;;;5115853;28;20028;-63
2023/01/31 12:01:21;;;;;;;54.83;47.13;;;20.00;99.90;;;;;;5115827;28;20365;-63
2023/01/31 12:03:58;;;;;;;3.97;3.53;;;19.50;99.90;;;;;;5115519;28;20034;-63
2023/01/31 12:06:39;;;;;;;2.22;1.60;;;18.50;99.90;;;;;;5115000;28;20035;-64
2023/01/31 12:09:22;;;;;;;2.30;2.10;;;16.60;99.90;;;;;;5115807;28;20480;-64
2023/01/31 12:11:54;;;;;;;2.22;1.60;;;16.90;99.90;;;;;;5115219;28;20097;-63
2023/01/31 12:14:21;;;;;;;58.22;52.30;;;16.50;99.90;;;;;;5115546;28;20081;-63
2023/01/31 12:16:48;;;;;;;49.10;44.00;;;16.10;99.90;;;;;;5115327;28;20028;-63
2023/01/31 12:19:27;;;;;;;36.55;33.03;;;16.40;99.90;;;;;;5115550;28;20051;-63
2023/01/31 12:22:07;;;;;;;44.90;40.72;;;16.50;99.90;;;;;;5115035;28;20024;-63
2023/01/31 12:24:48;;;;;;;12.70;11.43;;;16.00;99.90;;;;;;5113879;28;20400;-63
2023/01/31 12:27:16;;;;;;;5.28;4.70;;;16.20;99.90;;;;;;5115120;28;20042;-64
2023/01/31 12:30:12;;;;;;;2.83;2.53;;;16.20;99.90;;;;;;5115386;28;20026;-63
2023/01/31 12:32:44;;;;;;;2.20;1.58;;;16.30;99.90;;;;;;5115109;28;20039;-64
2023/01/31 12:35:30;;;;;;;4.50;3.72;;;16.00;99.90;;;;;;5115007;28;20103;-63
2023/01/31 12:38:04;;;;;;;3.15;2.85;;;16.00;99.90;;;;;;5115406;28;20031;-63
2023/01/31 12:40:46;;;;;;;2.30;1.92;;;16.00;99.90;;;;;;5114942;28;20026;-65
2023/01/31 12:43:51;;;;;;;2.28;2.08;;;16.30;99.90;;;;;;5115298;28;20044;-63
2023/01/31 12:46:23;;;;;;;3.75;2.42;;;16.20;99.90;;;;;;5114265;28;20081;-64
2023/01/31 12:49:04;;;;;;;3.25;2.47;;;16.20;99.90;;;;;;5114627;28;20035;-63
2023/01/31 12:51:46;;;;;;;16.63;14.88;;;16.00;99.90;;;;;;5114628;28;20030;-61
2023/01/31 12:54:59;;;;;;;4.10;3.25;;;16.20;99.90;;;;;;5114913;28;20032;-63
2023/01/31 12:57:31;;;;;;;11.27;8.25;;;16.20;99.90;;;;;;5051415;28;20105;-63
2023/01/31 13:00:17;;;;;;;18.15;16.23;;;16.40;99.90;;;;;;5051994;28;20529;-63
2023/01/31 13:03:07;;;;;;;17.92;16.10;;;16.40;99.90;;;;;;5051939;28;20045;-63
2023/01/31 13:05:37;;;;;;;9.88;8.63;;;16.10;99.90;;;;;;5052206;28;20120;-62
2023/01/31 13:08:16;;;;;;;8.10;7.10;;;15.90;99.90;;;;;;5039031;28;20068;-63